Language selection

Weather shortcuts

Strait of Belle Isle - eastern half: Past 24 Hour Conditions

 

West Chedabucto Bay - 44489

01:00 PM ADT 14 April 2024Buoy position: 45.49N 61.14W
Disclaimer

This table is a summary of hourly weather conditions for the past 24 hours.
Please note that these observations might not always be representative of weather conditions over their associated marine area.

Date / Time
(ADT)
Wind(knots) Wave height(m) Wave period(s) Pressure(kPa) Air tempC) Water tempC)
14 April 2024
13:00 SW 17 gusts 21 0.89 5.6 100.7 5 3
12:00 SW 18 gusts 22 0.93 5.8 100.7 5 3
11:00 SW 15 gusts 18 0.98 5.7 100.7 5 3
10:00 SW 15 gusts 19 0.95 6.8 100.7 5 3
9:00 SW 12 gusts 16 0.91 7.0 100.7 5 3
8:00 SW 12 gusts 15 0.91 6.5 100.7 5 3
7:00 SW 11 gusts 15 0.89 5.7 100.6 4 3
6:00 WSW 16 gusts 20 1.00 5.6 100.6 5 3
5:00 SW 17 gusts 20 0.99 5.4 100.6 5 3
4:00 SW 19 gusts 23 1.01 5.3 100.6 5 3
3:00 SW 17 gusts 20 1.10 6.2 100.5 5 3
2:00 SW 15 gusts 19 1.08 6.1 100.5 5 3
1:00 SSW 9 gusts 10 1.13 6.0 100.6 4 3
0:00 W 13 gusts 17 1.36 5.7 100.5 5 3
13 April 2024
23:00 SW 20 gusts 24 1.27 5.5 100.4 6 3
22:00 SW 22 gusts 25 1.49 5.2 100.4 6 3
21:00 SSW 25 gusts 32 1.88 5.3 100.4 7 3
20:00 S 25 gusts 30 1.55 4.8 100.3 8 3
19:00 S 24 gusts 29 1.60 5.0 100.4 7 3
18:00 S 26 gusts 32 1.72 5.0 100.5 8 3
17:00 SSW 26 gusts 32 1.59 5.1 100.6 8 3
16:00 SSW 24 gusts 31 1.59 5.1 100.7 8 3
15:00 S 25 gusts 34 1.73 5.2 100.7 8 3
14:00 SSW 24 gusts 30 1.70 5.5 100.9 8 3
13:00 SSW 25 gusts 31 1.76 5.0 100.9 9 3

Zoom-in to make a selection

Map of Atlantic - Newfoundland marine weather areas Banquereau - 44139 East Chedabucto Bay – 44488 West Chedabucto Bay – 44489 Blanc-Sablon Airport Cap Whittle Chevery Natashquan Airport Heath Point Îles de la Madeleine Airport Miscou Island Eskasoni (First Nations) Grand Étang Ingonish Beach North Mountain St.Paul Island J.A. Douglas McCurdy Sydney Airport Charlottetown Airport East Point North Cape Argentia Berry Hill Bonavista Burgeo Cape Race Corner Brook Daniel's Harbour Englee Ferolle Point La Scie Port aux Basques Sagona Island St. Anthony Airport St. John's Int'l Airport St. Lawrence Stephenville Airport Twillingate Winterland Branch Hill Wreckhouse Grates Cove Pool's Island Marticot Island Long Pond Cartwright Airport Mary's Harbour
Legend:
buoy Buoy
land station Land Station

Atlantic - Newfoundland Area

Another Region

Date modified: